sensor_id;sensor_type;location;lat;lon;timestamp;P1;durP1;ratioP1;P2;durP2;ratioP2
12593;SDS011;6362;50.208;9.182;2023-02-28T00:00:31;2.03;;;1.70;;
12593;SDS011;6362;50.208;9.182;2023-02-28T00:02:57;2.55;;;1.77;;
12593;SDS011;6362;50.208;9.182;2023-02-28T00:05:24;3.15;;;1.83;;
12593;SDS011;6362;50.208;9.182;2023-02-28T00:07:51;2.35;;;1.83;;
12593;SDS011;6362;50.208;9.182;2023-02-28T00:10:18;3.55;;;2.00;;
12593;SDS011;6362;50.208;9.182;2023-02-28T00:12:52;3.00;;;2.00;;
12593;SDS011;6362;50.208;9.182;2023-02-28T00:15:19;3.13;;;1.98;;
12593;SDS011;6362;50.208;9.182;2023-02-28T00:17:46;1.85;;;1.65;;
12593;SDS011;6362;50.208;9.182;2023-02-28T00:20:13;2.50;;;1.90;;
12593;SDS011;6362;50.208;9.182;2023-02-28T00:22:39;2.63;;;1.80;;
12593;SDS011;6362;50.208;9.182;2023-02-28T00:25:06;2.58;;;1.50;;
12593;SDS011;6362;50.208;9.182;2023-02-28T00:27:32;3.10;;;2.08;;
12593;SDS011;6362;50.208;9.182;2023-02-28T00:29:59;3.00;;;1.80;;
12593;SDS011;6362;50.208;9.182;2023-02-28T00:32:26;3.05;;;1.67;;
12593;SDS011;6362;50.208;9.182;2023-02-28T00:34:51;1.70;;;1.42;;
12593;SDS011;6362;50.208;9.182;2023-02-28T00:37:16;3.13;;;1.70;;
12593;SDS011;6362;50.208;9.182;2023-02-28T00:39:42;2.92;;;2.10;;
12593;SDS011;6362;50.208;9.182;2023-02-28T00:42:07;1.70;;;1.60;;
12593;SDS011;6362;50.208;9.182;2023-02-28T00:44:33;2.58;;;1.70;;
12593;SDS011;6362;50.208;9.182;2023-02-28T00:46:59;4.30;;;2.15;;
12593;SDS011;6362;50.208;9.182;2023-02-28T00:49:26;3.47;;;1.90;;
12593;SDS011;6362;50.208;9.182;2023-02-28T00:51:52;3.05;;;1.88;;
12593;SDS011;6362;50.208;9.182;2023-02-28T00:54:19;3.10;;;1.80;;
12593;SDS011;6362;50.208;9.182;2023-02-28T00:56:48;3.10;;;2.05;;
12593;SDS011;6362;50.208;9.182;2023-02-28T00:59:15;2.03;;;1.73;;
12593;SDS011;6362;50.208;9.182;2023-02-28T01:01:42;2.60;;;1.70;;
12593;SDS011;6362;50.208;9.182;2023-02-28T01:04:07;2.13;;;1.77;;
12593;SDS011;6362;50.208;9.182;2023-02-28T01:06:33;2.38;;;2.10;;
12593;SDS011;6362;50.208;9.182;2023-02-28T01:08:59;2.33;;;1.70;;
12593;SDS011;6362;50.208;9.182;2023-02-28T01:11:25;1.52;;;1.40;;
12593;SDS011;6362;50.208;9.182;2023-02-28T01:13:51;3.60;;;1.75;;
12593;SDS011;6362;50.208;9.182;2023-02-28T01:16:16;2.13;;;1.50;;
12593;SDS011;6362;50.208;9.182;2023-02-28T01:18:42;3.58;;;3.08;;
12593;SDS011;6362;50.208;9.182;2023-02-28T01:21:10;2.70;;;2.30;;
12593;SDS011;6362;50.208;9.182;2023-02-28T01:23:37;2.53;;;1.83;;
12593;SDS011;6362;50.208;9.182;2023-02-28T01:26:04;3.35;;;1.50;;
12593;SDS011;6362;50.208;9.182;2023-02-28T01:28:34;2.45;;;1.80;;
12593;SDS011;6362;50.208;9.182;2023-02-28T01:31:00;3.30;;;1.50;;
12593;SDS011;6362;50.208;9.182;2023-02-28T01:33:25;3.28;;;2.08;;
12593;SDS011;6362;50.208;9.182;2023-02-28T01:35:57;3.67;;;2.00;;
12593;SDS011;6362;50.208;9.182;2023-02-28T01:38:34;3.05;;;2.05;;
12593;SDS011;6362;50.208;9.182;2023-02-28T01:40:59;4.95;;;2.05;;
12593;SDS011;6362;50.208;9.182;2023-02-28T01:43:27;4.68;;;2.22;;
12593;SDS011;6362;50.208;9.182;2023-02-28T01:45:55;6.13;;;2.55;;
12593;SDS011;6362;50.208;9.182;2023-02-28T01:48:29;2.92;;;2.22;;
12593;SDS011;6362;50.208;9.182;2023-02-28T01:50:58;3.58;;;2.22;;
12593;SDS011;6362;50.208;9.182;2023-02-28T01:53:32;3.35;;;2.30;;
12593;SDS011;6362;50.208;9.182;2023-02-28T01:56:01;3.92;;;2.50;;
12593;SDS011;6362;50.208;9.182;2023-02-28T01:58:31;2.90;;;2.15;;
12593;SDS011;6362;50.208;9.182;2023-02-28T02:00:56;4.45;;;2.15;;
12593;SDS011;6362;50.208;9.182;2023-02-28T02:03:22;6.75;;;2.90;;
12593;SDS011;6362;50.208;9.182;2023-02-28T02:05:48;3.63;;;2.50;;
12593;SDS011;6362;50.208;9.182;2023-02-28T02:08:19;4.88;;;2.58;;
12593;SDS011;6362;50.208;9.182;2023-02-28T02:13:26;4.57;;;3.17;;
12593;SDS011;6362;50.208;9.182;2023-02-28T02:19:44;5.25;;;2.35;;
12593;SDS011;6362;50.208;9.182;2023-02-28T02:22:12;3.50;;;2.10;;
12593;SDS011;6362;50.208;9.182;2023-02-28T02:25:02;2.20;;;1.95;;
12593;SDS011;6362;50.208;9.182;2023-02-28T02:28:15;3.58;;;2.45;;
12593;SDS011;6362;50.208;9.182;2023-02-28T02:31:25;2.33;;;1.88;;
12593;SDS011;6362;50.208;9.182;2023-02-28T02:39:29;2.90;;;1.98;;
12593;SDS011;6362;50.208;9.182;2023-02-28T02:42:01;4.35;;;2.60;;
12593;SDS011;6362;50.208;9.182;2023-02-28T02:44:40;2.28;;;1.92;;
12593;SDS011;6362;50.208;9.182;2023-02-28T02:47:15;3.63;;;1.98;;
12593;SDS011;6362;50.208;9.182;2023-02-28T02:49:45;3.78;;;2.25;;
12593;SDS011;6362;50.208;9.182;2023-02-28T02:52:17;6.00;;;2.17;;
12593;SDS011;6362;50.208;9.182;2023-02-28T02:54:47;3.63;;;2.50;;
12593;SDS011;6362;50.208;9.182;2023-02-28T02:57:17;5.07;;;2.15;;
12593;SDS011;6362;50.208;9.182;2023-02-28T02:59:48;5.05;;;2.75;;
12593;SDS011;6362;50.208;9.182;2023-02-28T03:02:16;4.53;;;2.55;;
12593;SDS011;6362;50.208;9.182;2023-02-28T03:04:43;4.10;;;1.92;;
12593;SDS011;6362;50.208;9.182;2023-02-28T03:07:14;3.47;;;2.25;;
12593;SDS011;6362;50.208;9.182;2023-02-28T03:09:39;3.97;;;2.20;;
12593;SDS011;6362;50.208;9.182;2023-02-28T03:12:06;3.38;;;2.97;;
12593;SDS011;6362;50.208;9.182;2023-02-28T03:17:23;2.10;;;1.90;;
12593;SDS011;6362;50.208;9.182;2023-02-28T03:23:01;2.40;;;1.90;;
12593;SDS011;6362;50.208;9.182;2023-02-28T03:26:12;3.00;;;2.20;;
12593;SDS011;6362;50.208;9.182;2023-02-28T03:28:50;2.60;;;1.92;;
12593;SDS011;6362;50.208;9.182;2023-02-28T03:34:17;2.13;;;1.75;;
12593;SDS011;6362;50.208;9.182;2023-02-28T03:36:56;3.88;;;2.13;;
12593;SDS011;6362;50.208;9.182;2023-02-28T03:39:28;1.95;;;1.83;;
12593;SDS011;6362;50.208;9.182;2023-02-28T03:42:00;4.25;;;2.30;;
12593;SDS011;6362;50.208;9.182;2023-02-28T03:44:29;2.05;;;1.80;;
12593;SDS011;6362;50.208;9.182;2023-02-28T03:47:10;2.83;;;2.05;;
12593;SDS011;6362;50.208;9.182;2023-02-28T03:49:42;2.88;;;2.08;;
12593;SDS011;6362;50.208;9.182;2023-02-28T03:52:12;3.13;;;2.10;;
12593;SDS011;6362;50.208;9.182;2023-02-28T03:54:44;3.80;;;2.20;;
12593;SDS011;6362;50.208;9.182;2023-02-28T03:57:22;2.35;;;1.70;;
12593;SDS011;6362;50.208;9.182;2023-02-28T04:00:10;4.25;;;2.13;;
12593;SDS011;6362;50.208;9.182;2023-02-28T04:02:40;3.47;;;2.33;;
12593;SDS011;6362;50.208;9.182;2023-02-28T04:05:06;2.97;;;2.10;;
12593;SDS011;6362;50.208;9.182;2023-02-28T04:07:32;2.10;;;1.80;;
12593;SDS011;6362;50.208;9.182;2023-02-28T04:09:58;2.83;;;2.17;;
12593;SDS011;6362;50.208;9.182;2023-02-28T04:12:24;4.78;;;2.30;;
12593;SDS011;6362;50.208;9.182;2023-02-28T04:14:50;2.22;;;1.83;;
12593;SDS011;6362;50.208;9.182;2023-02-28T04:17:16;2.58;;;2.00;;
12593;SDS011;6362;50.208;9.182;2023-02-28T04:19:41;3.65;;;2.05;;
12593;SDS011;6362;50.208;9.182;2023-02-28T04:22:07;3.65;;;2.28;;
12593;SDS011;6362;50.208;9.182;2023-02-28T04:24:35;2.47;;;2.28;;
12593;SDS011;6362;50.208;9.182;2023-02-28T04:27:01;3.95;;;2.38;;
12593;SDS011;6362;50.208;9.182;2023-02-28T04:29:28;2.47;;;1.55;;
12593;SDS011;6362;50.208;9.182;2023-02-28T04:31:56;2.97;;;2.03;;
12593;SDS011;6362;50.208;9.182;2023-02-28T04:34:25;4.47;;;1.90;;
12593;SDS011;6362;50.208;9.182;2023-02-28T04:36:53;2.25;;;1.73;;
12593;SDS011;6362;50.208;9.182;2023-02-28T04:39:20;2.58;;;1.75;;
12593;SDS011;6362;50.208;9.182;2023-02-28T04:41:49;3.38;;;2.15;;
12593;SDS011;6362;50.208;9.182;2023-02-28T04:44:14;2.38;;;1.90;;
12593;SDS011;6362;50.208;9.182;2023-02-28T04:46:41;4.05;;;2.08;;
12593;SDS011;6362;50.208;9.182;2023-02-28T04:49:06;2.80;;;2.15;;
12593;SDS011;6362;50.208;9.182;2023-02-28T04:51:33;2.58;;;1.67;;
12593;SDS011;6362;50.208;9.182;2023-02-28T04:53:59;2.35;;;1.77;;
12593;SDS011;6362;50.208;9.182;2023-02-28T04:56:24;2.13;;;1.70;;
12593;SDS011;6362;50.208;9.182;2023-02-28T04:58:50;3.35;;;2.42;;
12593;SDS011;6362;50.208;9.182;2023-02-28T05:01:25;3.38;;;1.65;;
12593;SDS011;6362;50.208;9.182;2023-02-28T05:03:53;4.65;;;1.80;;
12593;SDS011;6362;50.208;9.182;2023-02-28T05:06:19;3.03;;;1.90;;
12593;SDS011;6362;50.208;9.182;2023-02-28T05:08:46;2.75;;;1.60;;
12593;SDS011;6362;50.208;9.182;2023-02-28T05:11:23;2.53;;;1.88;;
12593;SDS011;6362;50.208;9.182;2023-02-28T05:13:51;2.13;;;1.85;;
12593;SDS011;6362;50.208;9.182;2023-02-28T05:16:17;4.45;;;2.00;;
12593;SDS011;6362;50.208;9.182;2023-02-28T05:18:43;3.20;;;1.70;;
12593;SDS011;6362;50.208;9.182;2023-02-28T05:21:22;2.72;;;1.80;;
12593;SDS011;6362;50.208;9.182;2023-02-28T05:23:51;3.22;;;1.88;;
12593;SDS011;6362;50.208;9.182;2023-02-28T05:26:17;4.47;;;2.15;;
12593;SDS011;6362;50.208;9.182;2023-02-28T05:28:43;3.72;;;2.17;;
12593;SDS011;6362;50.208;9.182;2023-02-28T05:31:11;2.78;;;1.90;;
12593;SDS011;6362;50.208;9.182;2023-02-28T05:33:38;4.07;;;2.13;;
12593;SDS011;6362;50.208;9.182;2023-02-28T05:36:04;3.40;;;1.73;;
12593;SDS011;6362;50.208;9.182;2023-02-28T05:38:29;3.08;;;1.83;;
12593;SDS011;6362;50.208;9.182;2023-02-28T05:40:55;2.83;;;1.83;;
12593;SDS011;6362;50.208;9.182;2023-02-28T05:43:28;2.40;;;1.70;;
12593;SDS011;6362;50.208;9.182;2023-02-28T05:45:53;4.93;;;1.80;;
12593;SDS011;6362;50.208;9.182;2023-02-28T05:48:19;2.20;;;1.80;;
12593;SDS011;6362;50.208;9.182;2023-02-28T05:50:44;2.85;;;1.77;;
12593;SDS011;6362;50.208;9.182;2023-02-28T05:53:11;4.75;;;2.25;;
12593;SDS011;6362;50.208;9.182;2023-02-28T05:55:37;3.05;;;2.08;;
12593;SDS011;6362;50.208;9.182;2023-02-28T05:58:03;2.40;;;2.08;;
12593;SDS011;6362;50.208;9.182;2023-02-28T06:00:28;2.60;;;1.92;;
12593;SDS011;6362;50.208;9.182;2023-02-28T06:02:54;2.22;;;1.67;;
12593;SDS011;6362;50.208;9.182;2023-02-28T06:05:23;3.50;;;1.95;;
12593;SDS011;6362;50.208;9.182;2023-02-28T06:07:49;2.95;;;1.58;;
12593;SDS011;6362;50.208;9.182;2023-02-28T06:10:15;3.50;;;1.90;;
12593;SDS011;6362;50.208;9.182;2023-02-28T06:12:40;2.60;;;1.80;;
12593;SDS011;6362;50.208;9.182;2023-02-28T06:15:07;4.00;;;1.83;;
12593;SDS011;6362;50.208;9.182;2023-02-28T06:17:37;6.32;;;2.10;;
12593;SDS011;6362;50.208;9.182;2023-02-28T06:20:02;2.70;;;1.63;;
12593;SDS011;6362;50.208;9.182;2023-02-28T06:22:29;2.67;;;2.05;;
12593;SDS011;6362;50.208;9.182;2023-02-28T06:24:54;3.03;;;1.98;;
12593;SDS011;6362;50.208;9.182;2023-02-28T06:27:20;4.88;;;2.40;;
12593;SDS011;6362;50.208;9.182;2023-02-28T06:29:45;3.38;;;2.00;;
12593;SDS011;6362;50.208;9.182;2023-02-28T06:32:11;3.45;;;2.22;;
12593;SDS011;6362;50.208;9.182;2023-02-28T06:34:36;3.35;;;2.38;;
12593;SDS011;6362;50.208;9.182;2023-02-28T06:37:01;3.10;;;2.30;;
12593;SDS011;6362;50.208;9.182;2023-02-28T06:39:28;2.63;;;1.90;;
12593;SDS011;6362;50.208;9.182;2023-02-28T06:41:54;4.03;;;2.50;;
12593;SDS011;6362;50.208;9.182;2023-02-28T06:44:20;4.75;;;2.20;;
12593;SDS011;6362;50.208;9.182;2023-02-28T06:46:46;4.03;;;2.25;;
12593;SDS011;6362;50.208;9.182;2023-02-28T06:49:12;4.50;;;2.60;;
12593;SDS011;6362;50.208;9.182;2023-02-28T06:51:39;3.45;;;2.38;;
12593;SDS011;6362;50.208;9.182;2023-02-28T06:54:06;2.45;;;2.00;;
12593;SDS011;6362;50.208;9.182;2023-02-28T06:56:35;4.10;;;2.08;;
12593;SDS011;6362;50.208;9.182;2023-02-28T06:59:00;3.88;;;2.38;;
12593;SDS011;6362;50.208;9.182;2023-02-28T07:01:26;5.68;;;2.78;;
12593;SDS011;6362;50.208;9.182;2023-02-28T07:03:53;2.88;;;2.30;;
12593;SDS011;6362;50.208;9.182;2023-02-28T07:06:20;3.80;;;2.38;;
12593;SDS011;6362;50.208;9.182;2023-02-28T07:08:49;4.75;;;2.85;;
12593;SDS011;6362;50.208;9.182;2023-02-28T07:11:16;6.40;;;2.58;;
12593;SDS011;6362;50.208;9.182;2023-02-28T07:13:41;3.72;;;3.03;;
12593;SDS011;6362;50.208;9.182;2023-02-28T07:16:07;4.07;;;2.85;;
12593;SDS011;6362;50.208;9.182;2023-02-28T07:18:35;5.05;;;2.90;;
12593;SDS011;6362;50.208;9.182;2023-02-28T07:21:02;6.55;;;4.22;;
12593;SDS011;6362;50.208;9.182;2023-02-28T07:23:28;8.25;;;3.95;;
12593;SDS011;6362;50.208;9.182;2023-02-28T07:25:53;7.63;;;3.95;;
12593;SDS011;6362;50.208;9.182;2023-02-28T07:28:19;4.60;;;3.25;;
12593;SDS011;6362;50.208;9.182;2023-02-28T07:30:44;3.47;;;2.65;;
12593;SDS011;6362;50.208;9.182;2023-02-28T07:33:10;6.32;;;3.45;;
12593;SDS011;6362;50.208;9.182;2023-02-28T07:35:35;8.25;;;4.07;;
12593;SDS011;6362;50.208;9.182;2023-02-28T07:38:01;6.03;;;3.60;;
12593;SDS011;6362;50.208;9.182;2023-02-28T07:40:28;6.70;;;3.50;;
12593;SDS011;6362;50.208;9.182;2023-02-28T07:42:53;6.45;;;3.53;;
12593;SDS011;6362;50.208;9.182;2023-02-28T07:45:19;5.18;;;2.70;;
12593;SDS011;6362;50.208;9.182;2023-02-28T07:47:44;3.78;;;2.50;;
12593;SDS011;6362;50.208;9.182;2023-02-28T07:50:11;3.80;;;2.75;;
12593;SDS011;6362;50.208;9.182;2023-02-28T07:52:39;7.20;;;2.85;;
12593;SDS011;6362;50.208;9.182;2023-02-28T07:55:06;4.18;;;2.90;;
12593;SDS011;6362;50.208;9.182;2023-02-28T07:57:33;5.35;;;2.95;;
12593;SDS011;6362;50.208;9.182;2023-02-28T07:59:59;7.07;;;3.13;;
12593;SDS011;6362;50.208;9.182;2023-02-28T08:02:24;6.78;;;2.78;;
12593;SDS011;6362;50.208;9.182;2023-02-28T08:04:50;4.15;;;2.95;;
12593;SDS011;6362;50.208;9.182;2023-02-28T08:07:16;3.13;;;2.60;;
12593;SDS011;6362;50.208;9.182;2023-02-28T08:09:42;4.22;;;2.90;;
12593;SDS011;6362;50.208;9.182;2023-02-28T08:12:08;3.50;;;2.50;;
12593;SDS011;6362;50.208;9.182;2023-02-28T08:14:34;6.20;;;3.08;;
12593;SDS011;6362;50.208;9.182;2023-02-28T08:17:00;4.50;;;2.67;;
12593;SDS011;6362;50.208;9.182;2023-02-28T08:19:25;3.33;;;2.38;;
12593;SDS011;6362;50.208;9.182;2023-02-28T08:21:51;3.72;;;2.40;;
12593;SDS011;6362;50.208;9.182;2023-02-28T08:24:16;5.30;;;2.75;;
12593;SDS011;6362;50.208;9.182;2023-02-28T08:26:42;3.78;;;2.90;;
12593;SDS011;6362;50.208;9.182;2023-02-28T08:29:07;4.07;;;2.67;;
12593;SDS011;6362;50.208;9.182;2023-02-28T08:31:32;4.32;;;2.78;;
12593;SDS011;6362;50.208;9.182;2023-02-28T08:34:00;4.13;;;2.42;;
12593;SDS011;6362;50.208;9.182;2023-02-28T08:36:30;6.40;;;2.63;;
12593;SDS011;6362;50.208;9.182;2023-02-28T08:38:56;3.30;;;2.42;;
12593;SDS011;6362;50.208;9.182;2023-02-28T08:41:22;4.22;;;2.72;;
12593;SDS011;6362;50.208;9.182;2023-02-28T08:43:48;4.18;;;2.70;;
12593;SDS011;6362;50.208;9.182;2023-02-28T08:46:13;4.20;;;2.17;;
12593;SDS011;6362;50.208;9.182;2023-02-28T08:48:39;3.85;;;2.42;;
12593;SDS011;6362;50.208;9.182;2023-02-28T08:51:06;5.45;;;2.50;;
12593;SDS011;6362;50.208;9.182;2023-02-28T08:53:34;3.63;;;2.55;;
12593;SDS011;6362;50.208;9.182;2023-02-28T08:56:11;4.40;;;2.22;;
12593;SDS011;6362;50.208;9.182;2023-02-28T08:58:38;5.70;;;2.40;;
12593;SDS011;6362;50.208;9.182;2023-02-28T09:01:08;3.83;;;2.22;;
12593;SDS011;6362;50.208;9.182;2023-02-28T09:03:37;4.57;;;2.70;;
12593;SDS011;6362;50.208;9.182;2023-02-28T09:06:03;5.53;;;2.70;;
12593;SDS011;6362;50.208;9.182;2023-02-28T09:08:30;5.55;;;3.22;;
12593;SDS011;6362;50.208;9.182;2023-02-28T09:10:56;4.70;;;3.28;;
12593;SDS011;6362;50.208;9.182;2023-02-28T09:13:26;4.43;;;3.20;;
12593;SDS011;6362;50.208;9.182;2023-02-28T09:15:52;5.78;;;3.20;;
12593;SDS011;6362;50.208;9.182;2023-02-28T09:18:17;6.15;;;3.33;;
12593;SDS011;6362;50.208;9.182;2023-02-28T09:20:43;4.88;;;3.10;;
12593;SDS011;6362;50.208;9.182;2023-02-28T09:23:10;6.05;;;3.72;;
12593;SDS011;6362;50.208;9.182;2023-02-28T09:25:37;5.38;;;3.45;;
12593;SDS011;6362;50.208;9.182;2023-02-28T09:28:10;5.57;;;3.20;;
12593;SDS011;6362;50.208;9.182;2023-02-28T09:30:36;6.00;;;3.30;;
12593;SDS011;6362;50.208;9.182;2023-02-28T09:33:01;5.15;;;3.30;;
12593;SDS011;6362;50.208;9.182;2023-02-28T09:35:27;6.25;;;3.33;;
12593;SDS011;6362;50.208;9.182;2023-02-28T09:37:52;5.95;;;3.25;;
12593;SDS011;6362;50.208;9.182;2023-02-28T09:40:22;8.23;;;4.18;;
12593;SDS011;6362;50.208;9.182;2023-02-28T09:42:51;7.80;;;4.03;;
12593;SDS011;6362;50.208;9.182;2023-02-28T09:48:09;4.05;;;3.03;;
12593;SDS011;6362;50.208;9.182;2023-02-28T09:50:41;5.97;;;3.47;;
12593;SDS011;6362;50.208;9.182;2023-02-28T09:55:53;5.07;;;3.13;;
12593;SDS011;6362;50.208;9.182;2023-02-28T09:58:23;5.20;;;2.70;;
12593;SDS011;6362;50.208;9.182;2023-02-28T10:01:03;4.57;;;3.13;;
12593;SDS011;6362;50.208;9.182;2023-02-28T10:06:13;6.57;;;3.58;;
12593;SDS011;6362;50.208;9.182;2023-02-28T10:11:38;4.13;;;2.97;;
12593;SDS011;6362;50.208;9.182;2023-02-28T10:14:09;6.18;;;2.78;;
12593;SDS011;6362;50.208;9.182;2023-02-28T10:16:43;5.93;;;2.97;;
12593;SDS011;6362;50.208;9.182;2023-02-28T10:21:56;5.88;;;2.97;;
12593;SDS011;6362;50.208;9.182;2023-02-28T10:24:44;5.93;;;2.83;;
12593;SDS011;6362;50.208;9.182;2023-02-28T10:27:19;4.90;;;3.00;;
12593;SDS011;6362;50.208;9.182;2023-02-28T10:29:53;5.43;;;3.50;;
12593;SDS011;6362;50.208;9.182;2023-02-28T10:32:23;4.90;;;3.17;;
12593;SDS011;6362;50.208;9.182;2023-02-28T10:35:00;4.57;;;3.10;;
12593;SDS011;6362;50.208;9.182;2023-02-28T10:37:41;5.95;;;3.22;;
12593;SDS011;6362;50.208;9.182;2023-02-28T10:42:54;7.18;;;3.25;;
12593;SDS011;6362;50.208;9.182;2023-02-28T10:45:22;7.13;;;3.88;;
12593;SDS011;6362;50.208;9.182;2023-02-28T10:48:56;7.50;;;4.78;;
12593;SDS011;6362;50.208;9.182;2023-02-28T10:50:46;6.53;;;3.45;;
12593;SDS011;6362;50.208;9.182;2023-02-28T10:53:22;7.38;;;3.33;;
12593;SDS011;6362;50.208;9.182;2023-02-28T11:01:13;6.63;;;3.75;;
12593;SDS011;6362;50.208;9.182;2023-02-28T11:03:49;6.30;;;3.55;;
12593;SDS011;6362;50.208;9.182;2023-02-28T11:06:26;6.55;;;4.13;;
12593;SDS011;6362;50.208;9.182;2023-02-28T11:08:56;6.32;;;3.60;;
12593;SDS011;6362;50.208;9.182;2023-02-28T11:11:27;6.28;;;3.45;;
12593;SDS011;6362;50.208;9.182;2023-02-28T11:13:57;4.03;;;2.70;;
12593;SDS011;6362;50.208;9.182;2023-02-28T11:16:32;4.28;;;3.22;;
12593;SDS011;6362;50.208;9.182;2023-02-28T11:19:00;4.28;;;2.75;;
12593;SDS011;6362;50.208;9.182;2023-02-28T11:21:27;5.38;;;3.90;;
12593;SDS011;6362;50.208;9.182;2023-02-28T11:24:00;4.68;;;3.17;;
12593;SDS011;6362;50.208;9.182;2023-02-28T11:29:12;5.18;;;3.33;;
12593;SDS011;6362;50.208;9.182;2023-02-28T11:31:54;5.70;;;3.85;;
12593;SDS011;6362;50.208;9.182;2023-02-28T11:34:45;4.70;;;3.30;;
12593;SDS011;6362;50.208;9.182;2023-02-28T11:37:14;4.28;;;3.55;;
12593;SDS011;6362;50.208;9.182;2023-02-28T11:39:43;5.70;;;3.80;;
12593;SDS011;6362;50.208;9.182;2023-02-28T11:42:19;5.10;;;3.55;;
12593;SDS011;6362;50.208;9.182;2023-02-28T11:53:01;5.13;;;3.40;;
12593;SDS011;6362;50.208;9.182;2023-02-28T11:55:37;6.57;;;3.63;;
12593;SDS011;6362;50.208;9.182;2023-02-28T11:58:16;5.70;;;3.65;;
12593;SDS011;6362;50.208;9.182;2023-02-28T12:06:27;5.75;;;3.65;;
12593;SDS011;6362;50.208;9.182;2023-02-28T12:11:54;4.63;;;3.30;;
12593;SDS011;6362;50.208;9.182;2023-02-28T12:19:41;6.00;;;4.20;;
12593;SDS011;6362;50.208;9.182;2023-02-28T12:22:12;6.70;;;4.55;;
12593;SDS011;6362;50.208;9.182;2023-02-28T12:24:49;4.93;;;3.70;;
12593;SDS011;6362;50.208;9.182;2023-02-28T12:27:20;5.00;;;3.38;;
12593;SDS011;6362;50.208;9.182;2023-02-28T12:30:00;6.38;;;3.75;;
12593;SDS011;6362;50.208;9.182;2023-02-28T12:32:34;4.97;;;3.25;;
12593;SDS011;6362;50.208;9.182;2023-02-28T12:37:39;5.95;;;3.92;;
12593;SDS011;6362;50.208;9.182;2023-02-28T12:40:12;6.47;;;3.55;;
12593;SDS011;6362;50.208;9.182;2023-02-28T12:42:45;6.60;;;3.97;;
12593;SDS011;6362;50.208;9.182;2023-02-28T12:45:22;5.70;;;3.88;;
12593;SDS011;6362;50.208;9.182;2023-02-28T12:48:00;4.05;;;3.20;;
12593;SDS011;6362;50.208;9.182;2023-02-28T12:50:30;4.60;;;3.58;;
12593;SDS011;6362;50.208;9.182;2023-02-28T12:53:06;6.38;;;4.20;;
12593;SDS011;6362;50.208;9.182;2023-02-28T12:55:45;6.90;;;4.20;;
12593;SDS011;6362;50.208;9.182;2023-02-28T12:58:39;5.88;;;3.50;;
12593;SDS011;6362;50.208;9.182;2023-02-28T13:09:31;5.25;;;4.00;;
12593;SDS011;6362;50.208;9.182;2023-02-28T13:11:57;6.43;;;4.50;;
12593;SDS011;6362;50.208;9.182;2023-02-28T13:19:32;7.97;;;4.65;;
12593;SDS011;6362;50.208;9.182;2023-02-28T13:22:00;6.30;;;3.63;;
12593;SDS011;6362;50.208;9.182;2023-02-28T13:24:43;4.00;;;3.25;;
12593;SDS011;6362;50.208;9.182;2023-02-28T13:34:36;6.68;;;4.38;;
12593;SDS011;6362;50.208;9.182;2023-02-28T13:47:31;5.70;;;3.60;;
12593;SDS011;6362;50.208;9.182;2023-02-28T13:50:21;6.80;;;3.47;;
12593;SDS011;6362;50.208;9.182;2023-02-28T13:56:05;5.45;;;3.60;;
12593;SDS011;6362;50.208;9.182;2023-02-28T14:06:36;4.78;;;3.70;;
12593;SDS011;6362;50.208;9.182;2023-02-28T14:11:37;4.95;;;3.33;;
12593;SDS011;6362;50.208;9.182;2023-02-28T14:14:05;6.35;;;3.38;;
12593;SDS011;6362;50.208;9.182;2023-02-28T14:16:39;5.32;;;3.00;;
12593;SDS011;6362;50.208;9.182;2023-02-28T14:19:13;5.57;;;3.60;;
12593;SDS011;6362;50.208;9.182;2023-02-28T14:27:16;4.47;;;3.38;;
12593;SDS011;6362;50.208;9.182;2023-02-28T14:37:36;5.25;;;3.97;;
12593;SDS011;6362;50.208;9.182;2023-02-28T14:40:04;8.07;;;3.67;;
12593;SDS011;6362;50.208;9.182;2023-02-28T14:42:37;5.15;;;3.40;;
12593;SDS011;6362;50.208;9.182;2023-02-28T14:45:17;5.03;;;3.30;;
12593;SDS011;6362;50.208;9.182;2023-02-28T14:47:43;6.53;;;3.70;;
12593;SDS011;6362;50.208;9.182;2023-02-28T14:50:17;8.80;;;4.00;;
12593;SDS011;6362;50.208;9.182;2023-02-28T14:52:44;6.85;;;3.83;;
12593;SDS011;6362;50.208;9.182;2023-02-28T14:55:12;5.65;;;4.07;;
12593;SDS011;6362;50.208;9.182;2023-02-28T14:57:44;6.97;;;4.22;;
12593;SDS011;6362;50.208;9.182;2023-02-28T15:00:28;5.05;;;3.28;;
12593;SDS011;6362;50.208;9.182;2023-02-28T15:03:00;5.05;;;3.65;;
12593;SDS011;6362;50.208;9.182;2023-02-28T15:08:06;5.90;;;3.35;;
12593;SDS011;6362;50.208;9.182;2023-02-28T15:10:31;7.32;;;3.38;;
12593;SDS011;6362;50.208;9.182;2023-02-28T15:18:37;7.97;;;3.95;;
12593;SDS011;6362;50.208;9.182;2023-02-28T15:21:06;6.55;;;3.50;;
12593;SDS011;6362;50.208;9.182;2023-02-28T15:23:36;6.88;;;3.33;;
12593;SDS011;6362;50.208;9.182;2023-02-28T15:26:03;6.45;;;3.70;;
12593;SDS011;6362;50.208;9.182;2023-02-28T15:28:30;6.10;;;4.30;;
12593;SDS011;6362;50.208;9.182;2023-02-28T15:30:57;5.32;;;3.38;;
12593;SDS011;6362;50.208;9.182;2023-02-28T15:33:31;6.25;;;3.50;;
12593;SDS011;6362;50.208;9.182;2023-02-28T15:36:32;7.13;;;4.38;;
12593;SDS011;6362;50.208;9.182;2023-02-28T15:38:56;6.05;;;4.63;;
12593;SDS011;6362;50.208;9.182;2023-02-28T15:46:43;5.45;;;3.42;;
12593;SDS011;6362;50.208;9.182;2023-02-28T15:49:19;5.07;;;3.60;;
12593;SDS011;6362;50.208;9.182;2023-02-28T15:52:04;5.97;;;3.53;;
12593;SDS011;6362;50.208;9.182;2023-02-28T15:57:37;7.82;;;3.70;;
12593;SDS011;6362;50.208;9.182;2023-02-28T16:00:06;5.18;;;3.47;;
12593;SDS011;6362;50.208;9.182;2023-02-28T16:02:36;7.13;;;4.07;;
12593;SDS011;6362;50.208;9.182;2023-02-28T16:07:31;7.53;;;3.40;;
12593;SDS011;6362;50.208;9.182;2023-02-28T16:09:58;5.30;;;3.30;;
12593;SDS011;6362;50.208;9.182;2023-02-28T16:12:28;5.40;;;3.65;;
12593;SDS011;6362;50.208;9.182;2023-02-28T16:15:03;5.20;;;3.53;;
12593;SDS011;6362;50.208;9.182;2023-02-28T16:17:33;7.40;;;3.90;;
12593;SDS011;6362;50.208;9.182;2023-02-28T16:20:05;3.92;;;2.78;;
12593;SDS011;6362;50.208;9.182;2023-02-28T16:22:39;6.65;;;3.53;;
12593;SDS011;6362;50.208;9.182;2023-02-28T16:25:04;9.80;;;4.20;;
12593;SDS011;6362;50.208;9.182;2023-02-28T16:27:34;6.93;;;3.20;;
12593;SDS011;6362;50.208;9.182;2023-02-28T16:30:03;6.65;;;3.53;;
12593;SDS011;6362;50.208;9.182;2023-02-28T16:32:30;6.68;;;3.72;;
12593;SDS011;6362;50.208;9.182;2023-02-28T16:34:59;5.38;;;3.65;;
12593;SDS011;6362;50.208;9.182;2023-02-28T16:37:26;6.18;;;3.30;;
12593;SDS011;6362;50.208;9.182;2023-02-28T16:39:52;4.75;;;2.90;;
12593;SDS011;6362;50.208;9.182;2023-02-28T16:42:22;9.60;;;3.88;;
12593;SDS011;6362;50.208;9.182;2023-02-28T16:44:50;5.88;;;2.85;;
12593;SDS011;6362;50.208;9.182;2023-02-28T16:47:17;7.00;;;3.80;;
12593;SDS011;6362;50.208;9.182;2023-02-28T16:49:42;4.97;;;3.05;;
12593;SDS011;6362;50.208;9.182;2023-02-28T16:52:11;7.05;;;3.60;;
12593;SDS011;6362;50.208;9.182;2023-02-28T16:54:37;5.35;;;3.08;;
12593;SDS011;6362;50.208;9.182;2023-02-28T16:57:04;7.90;;;3.67;;
12593;SDS011;6362;50.208;9.182;2023-02-28T16:59:30;7.43;;;3.83;;
12593;SDS011;6362;50.208;9.182;2023-02-28T17:01:57;5.90;;;2.45;;
12593;SDS011;6362;50.208;9.182;2023-02-28T17:04:23;5.45;;;2.75;;
12593;SDS011;6362;50.208;9.182;2023-02-28T17:06:49;6.45;;;3.60;;
12593;SDS011;6362;50.208;9.182;2023-02-28T17:09:17;5.30;;;3.42;;
12593;SDS011;6362;50.208;9.182;2023-02-28T17:11:46;6.30;;;4.00;;
12593;SDS011;6362;50.208;9.182;2023-02-28T17:14:12;8.45;;;4.10;;
12593;SDS011;6362;50.208;9.182;2023-02-28T17:16:38;4.90;;;3.60;;
12593;SDS011;6362;50.208;9.182;2023-02-28T17:19:05;5.18;;;3.53;;
12593;SDS011;6362;50.208;9.182;2023-02-28T17:21:32;6.05;;;3.72;;
12593;SDS011;6362;50.208;9.182;2023-02-28T17:23:58;7.65;;;4.15;;
12593;SDS011;6362;50.208;9.182;2023-02-28T17:26:24;6.22;;;4.38;;
12593;SDS011;6362;50.208;9.182;2023-02-28T17:28:50;7.20;;;4.88;;
12593;SDS011;6362;50.208;9.182;2023-02-28T17:31:17;6.88;;;4.65;;
12593;SDS011;6362;50.208;9.182;2023-02-28T17:33:43;5.93;;;4.13;;
12593;SDS011;6362;50.208;9.182;2023-02-28T17:36:15;11.13;;;5.95;;
12593;SDS011;6362;50.208;9.182;2023-02-28T17:38:46;10.80;;;5.65;;
12593;SDS011;6362;50.208;9.182;2023-02-28T17:41:12;10.02;;;5.43;;